Time;durP1;ratioP1;P1;durP2;ratioP2;P2;SDS_P1;SDS_P2;PMS_P1;PMS_P2;Temp;Humidity;BMP_temperature;BMP_pressure;BME280_temperature;BME280_humidity;BME280_pressure;Samples;Min_cycle;Max_cycle;Signal;HPM_P1;HPM_P2
2022/06/13 00:00:47;;;;;;;;;;;;;;;22.22;53.09;95093.88;2049496;28;1327;-61
2022/06/13 00:01:49;;;;;;;;;;;;;;;22.22;52.82;95093.88;2049753;28;1867;-60
2022/06/13 00:02:52;;;;;;;;;;;;;;;22.20;53.02;95091.44;2049562;28;1133;-61
2022/06/13 00:03:56;;;;;;;;;;;;;;;22.20;52.73;95098.66;2055872;28;1544;-61
2022/06/13 00:04:59;;;;;;;;;;;;;;;22.20;53.06;95093.31;2056958;28;1982;-61
2022/06/13 00:06:02;;;;;;;;;;;;;;;22.22;52.99;95092.03;2057522;28;1101;-61
2022/06/13 00:07:04;;;;;;;;;;;;;;;22.25;53.04;95096.13;2057595;28;1109;-61
2022/06/13 00:08:07;;;;;;;;;;;;;;;22.25;52.86;95101.47;2058052;28;1489;-60
2022/06/13 00:09:08;;;;;;;;;;;;;;;22.24;52.72;95097.16;2053736;28;1702;-62
2022/06/13 00:10:12;;;;;;;;;;;;;;;22.24;52.85;95094.50;2054125;28;1887;-61
2022/06/13 00:11:15;;;;;;;;;;;;;;;22.21;52.95;95095.75;2058015;28;1555;-58
2022/06/13 00:12:18;;;;;;;;;;;;;;;22.21;52.79;95094.94;2058319;28;1740;-61
2022/06/13 00:13:20;;;;;;;;;;;;;;;22.19;52.59;95088.97;2058858;28;1641;-60
2022/06/13 00:14:22;;;;;;;;;;;;;;;22.19;52.72;95097.00;2058638;28;1731;-59
2022/06/13 00:15:24;;;;;;;;;;;;;;;22.18;52.83;95092.69;2058934;28;1152;-59
2022/06/13 00:16:27;;;;;;;;;;;;;;;22.16;52.69;95095.59;2057988;28;1448;-61
2022/06/13 00:17:29;;;;;;;;;;;;;;;22.15;52.88;95101.16;2058897;28;1152;-60
2022/06/13 00:18:32;;;;;;;;;;;;;;;22.15;52.77;95098.50;2058999;28;1076;-57
2022/06/13 00:19:35;;;;;;;;;;;;;;;22.13;52.90;95099.50;2058399;28;1724;-61
2022/06/13 00:20:38;;;;;;;;;;;;;;;22.16;52.62;95102.78;2053073;28;1193;-58
2022/06/13 00:21:40;;;;;;;;;;;;;;;22.17;52.77;95105.28;2055871;28;1745;-59
2022/06/13 00:22:43;;;;;;;;;;;;;;;22.18;52.78;95100.72;2051044;28;1053;-60
2022/06/13 00:23:44;;;;;;;;;;;;;;;22.18;52.90;95100.72;2050719;28;1117;-61
2022/06/13 00:24:47;;;;;;;;;;;;;;;22.18;52.61;95104.22;2050898;28;1979;-59
2022/06/13 00:25:49;;;;;;;;;;;;;;;22.20;52.94;95106.69;2050798;28;1121;-61
2022/06/13 00:26:52;;;;;;;;;;;;;;;22.21;52.67;95105.63;2050636;28;1106;-58
2022/06/13 00:27:54;;;;;;;;;;;;;;;22.19;52.79;95108.53;2050987;28;1024;-59
2022/06/13 00:28:57;;;;;;;;;;;;;;;22.19;52.59;95110.38;2050949;28;999;-59
2022/06/13 00:29:59;;;;;;;;;;;;;;;22.21;52.55;95116.34;2050746;28;1128;-59
2022/06/13 00:31:02;;;;;;;;;;;;;;;22.20;52.74;95109.38;2055281;28;1515;-61
2022/06/13 00:32:04;;;;;;;;;;;;;;;22.18;52.73;95108.75;2051331;28;1116;-60
2022/06/13 00:33:07;;;;;;;;;;;;;;;22.16;52.51;95113.50;2056353;28;1521;-60
2022/06/13 00:34:10;;;;;;;;;;;;;;;22.16;52.83;95108.97;2058202;28;1720;-60
2022/06/13 00:35:13;;;;;;;;;;;;;;;22.15;52.57;95109.19;2058775;28;1027;-61
2022/06/13 00:36:16;;;;;;;;;;;;;;;22.13;52.70;95115.56;2058918;28;1091;-61
2022/06/13 00:37:18;;;;;;;;;;;;;;;22.17;52.93;95107.94;2058873;28;1061;-61
2022/06/13 00:38:21;;;;;;;;;;;;;;;22.18;52.83;95116.78;2051238;28;1575;-61
2022/06/13 00:39:24;;;;;;;;;;;;;;;22.16;52.71;95124.22;2050894;28;1006;-61
2022/06/13 00:40:26;;;;;;;;;;;;;;;22.15;52.74;95118.03;2054445;28;1721;-60
2022/06/13 00:41:35;;;;;;;;;;;;;;;22.13;52.70;95112.06;2058292;28;1110;-59
2022/06/13 00:42:38;;;;;;;;;;;;;;;22.13;52.63;95106.72;2058711;28;1787;-57
2022/06/13 00:43:42;;;;;;;;;;;;;;;22.13;52.57;95112.88;2050650;28;1401;-60
2022/06/13 00:44:59;;;;;;;;;;;;;;;22.14;52.52;95113.75;2058402;28;1721;-61
2022/06/13 00:46:01;;;;;;;;;;;;;;;22.15;52.62;95114.56;2058004;28;1505;-60
2022/06/13 00:47:04;;;;;;;;;;;;;;;22.14;52.64;95119.09;2058690;28;1188;-59
2022/06/13 00:48:07;;;;;;;;;;;;;;;22.12;52.37;95105.09;2058850;28;1036;-60
2022/06/13 00:49:13;;;;;;;;;;;;;;;22.11;52.27;95109.63;2058312;28;1779;-60
2022/06/13 00:50:22;;;;;;;;;;;;;;;22.12;52.43;95113.13;2050795;28;999;-60
2022/06/13 00:51:24;;;;;;;;;;;;;;;22.12;52.41;95103.25;2052447;28;1721;-58
2022/06/13 00:52:29;;;;;;;;;;;;;;;22.16;52.60;95114.31;2058664;28;1199;-59
2022/06/13 00:53:34;;;;;;;;;;;;;;;22.16;52.26;95108.16;2058396;28;1160;-60
2022/06/13 00:54:36;;;;;;;;;;;;;;;22.13;52.52;95104.88;2053777;28;1292;-59
2022/06/13 00:55:41;;;;;;;;;;;;;;;22.15;52.45;95104.66;2053041;28;1621;-59
2022/06/13 00:56:44;;;;;;;;;;;;;;;22.14;52.47;95103.03;2058104;28;1458;-60
2022/06/13 00:57:47;;;;;;;;;;;;;;;22.15;52.43;95106.53;2058702;28;1057;-61
2022/06/13 00:58:53;;;;;;;;;;;;;;;22.13;52.45;95106.72;2058671;28;1014;-60
2022/06/13 00:59:57;;;;;;;;;;;;;;;22.11;52.47;95101.63;2058606;28;1457;-59
2022/06/13 01:00:59;;;;;;;;;;;;;;;22.11;52.44;95104.28;2058668;28;1098;-60
2022/06/13 01:02:02;;;;;;;;;;;;;;;22.10;52.23;95102.63;2058452;28;1099;-60
2022/06/13 01:03:05;;;;;;;;;;;;;;;22.11;52.58;95101.63;2058671;28;1110;-61
2022/06/13 01:04:08;;;;;;;;;;;;;;;22.11;52.62;95104.28;2058162;28;1176;-61
2022/06/13 01:05:12;;;;;;;;;;;;;;;22.12;52.28;95099.75;2058244;28;1907;-61
2022/06/13 01:06:16;;;;;;;;;;;;;;;22.13;52.23;95104.88;2049123;28;1785;-62
2022/06/13 01:07:19;;;;;;;;;;;;;;;22.13;52.16;95099.50;2057392;28;1637;-62
2022/06/13 01:08:23;;;;;;;;;;;;;;;22.12;52.27;95097.88;2058380;28;1089;-62
2022/06/13 01:12:06;;;;;;;;;;;;;;;22.11;52.22;95088.22;2058515;28;1169;-62
2022/06/13 01:13:10;;;;;;;;;;;;;;;22.10;52.02;95091.94;2058521;28;1713;-61
2022/06/13 01:14:31;;;;;;;;;;;;;;;22.11;52.18;95093.59;2058621;28;1015;-60
2022/06/13 01:15:51;;;;;;;;;;;;;;;22.13;52.29;95102.19;2058418;28;1728;-61
2022/06/13 01:17:02;;;;;;;;;;;;;;;22.13;52.17;95096.84;2053654;28;1825;-57
2022/06/13 01:18:13;;;;;;;;;;;;;;;22.13;52.10;95104.06;2053633;28;1303;-58
2022/06/13 01:19:28;;;;;;;;;;;;;;;22.15;51.97;95098.50;2057219;28;1642;-58
2022/06/13 01:20:45;;;;;;;;;;;;;;;22.13;52.04;95102.19;2050558;28;1022;-57
2022/06/13 01:21:52;;;;;;;;;;;;;;;22.13;51.93;95099.50;2050599;28;1003;-59
2022/06/13 01:23:16;;;;;;;;;;;;;;;22.13;52.18;95098.69;2051105;28;1719;-57
2022/06/13 01:24:38;;;;;;;;;;;;;;;22.11;52.11;95096.25;2058705;28;1097;-60
2022/06/13 01:25:54;;;;;;;;;;;;;;;22.13;51.99;95090.66;2058151;28;1906;-56
2022/06/13 01:27:16;;;;;;;;;;;;;;;22.14;51.93;95095.00;2058412;28;1168;-52
2022/06/13 01:28:29;;;;;;;;;;;;;;;22.13;51.79;95091.47;2053910;28;1129;-57
2022/06/13 01:29:47;;;;;;;;;;;;;;;22.12;51.98;95095.22;2053748;28;1288;-55
2022/06/13 01:30:55;;;;;;;;;;;;;;;22.10;51.92;95088.44;2025726;29;1138;-52
2022/06/13 01:32:03;;;;;;;;;;;;;;;22.08;51.92;95086.00;2052918;28;1320;-54
2022/06/13 01:33:10;;;;;;;;;;;;;;;22.04;52.08;95084.78;2058020;28;1149;-52
2022/06/13 01:34:17;;;;;;;;;;;;;;;22.06;51.73;95089.94;2057390;28;1796;-50
2022/06/13 01:35:25;;;;;;;;;;;;;;;22.07;51.76;95088.88;2058249;28;1456;-52
2022/06/13 01:36:34;;;;;;;;;;;;;;;22.07;51.88;95095.03;2058404;28;1110;-53
2022/06/13 01:37:46;;;;;;;;;;;;;;;22.06;51.66;95098.75;2057613;28;1534;-57
2022/06/13 01:38:58;;;;;;;;;;;;;;;22.03;51.97;95093.84;2058411;28;1034;-52
2022/06/13 01:40:06;;;;;;;;;;;;;;;22.03;51.74;95099.22;2051546;28;1742;-55
2022/06/13 01:41:10;;;;;;;;;;;;;;;22.04;52.00;95106.19;2049884;28;1031;-55
2022/06/13 01:42:20;;;;;;;;;;;;;;;22.04;52.05;95095.47;2055014;28;1544;-55
2022/06/13 01:43:25;;;;;;;;;;;;;;;22.03;51.68;95096.53;2050340;28;1141;-52
2022/06/13 01:44:33;;;;;;;;;;;;;;;22.03;51.81;95093.03;2057509;28;1500;-52
2022/06/13 01:45:39;;;;;;;;;;;;;;;22.06;52.15;95096.09;2058368;28;1153;-54
2022/06/13 01:46:45;;;;;;;;;;;;;;;22.06;51.89;95093.41;2058042;28;1968;-53
2022/06/13 01:47:52;;;;;;;;;;;;;;;22.06;52.05;95096.09;2058028;28;1069;-52
2022/06/13 01:49:00;;;;;;;;;;;;;;;22.05;52.06;95107.00;2058252;28;2473;-53
2022/06/13 01:50:05;;;;;;;;;;;;;;;22.04;51.72;95090.13;2057240;28;1525;-55
2022/06/13 01:51:22;;;;;;;;;;;;;;;22.04;51.99;95095.47;2053314;28;1492;-51
2022/06/13 01:52:27;;;;;;;;;;;;;;;22.05;51.98;95097.13;2056081;28;1775;-53
2022/06/13 01:53:37;;;;;;;;;;;;;;;22.06;52.22;95104.13;2058389;28;967;-51
2022/06/13 01:54:42;;;;;;;;;;;;;;;22.05;51.86;95104.31;2057943;28;1580;-55
2022/06/13 01:55:47;;;;;;;;;;;;;;;22.05;52.05;95098.97;2057906;28;1052;-52
2022/06/13 01:56:53;;;;;;;;;;;;;;;22.04;52.07;95095.47;2058057;28;1460;-52
2022/06/13 01:58:03;;;;;;;;;;;;;;;22.03;51.90;95098.38;2058125;28;1452;-51
2022/06/13 01:59:09;;;;;;;;;;;;;;;22.02;51.85;95096.72;2057931;28;1745;-51
2022/06/13 02:00:13;;;;;;;;;;;;;;;22.02;52.00;95097.53;2058100;28;1618;-53
2022/06/13 02:01:19;;;;;;;;;;;;;;;22.04;52.00;95095.47;2058241;28;1053;-51
2022/06/13 02:02:27;;;;;;;;;;;;;;;22.04;51.96;95106.19;2053539;28;1076;-52
2022/06/13 02:03:32;;;;;;;;;;;;;;;22.05;51.60;95101.66;2052752;28;1708;-51
2022/06/13 02:04:37;;;;;;;;;;;;;;;22.04;51.71;95110.72;2057340;28;1485;-51
2022/06/13 02:05:42;;;;;;;;;;;;;;;22.01;51.78;95106.63;2057307;28;1506;-54
2022/06/13 02:06:48;;;;;;;;;;;;;;;22.03;51.59;95111.78;2058249;28;1977;-55
2022/06/13 02:07:56;;;;;;;;;;;;;;;22.03;51.56;95104.56;2057238;28;1445;-55
2022/06/13 02:09:21;;;;;;;;;;;;;;;22.04;51.79;95105.38;2058145;28;2528;-55
2022/06/13 02:10:25;;;;;;;;;;;;;;;22.04;51.72;95114.22;2057567;28;1105;-52
2022/06/13 02:11:31;;;;;;;;;;;;;;;22.03;51.47;95104.56;2057969;28;1165;-53
2022/06/13 02:12:35;;;;;;;;;;;;;;;22.04;51.70;95103.50;2058046;28;1176;-53
2022/06/13 02:13:38;;;;;;;;;;;;;;;22.04;51.64;95110.72;2053376;28;1168;-56
2022/06/13 02:14:44;;;;;;;;;;;;;;;22.03;51.51;95106.41;2052961;28;1700;-56
2022/06/13 02:15:51;;;;;;;;;;;;;;;22.02;51.38;95110.09;2058175;28;1070;-53
2022/06/13 02:16:55;;;;;;;;;;;;;;;22.01;51.38;95105.81;2058121;28;1023;-57
2022/06/13 02:18:01;;;;;;;;;;;;;;;22.00;51.25;95107.66;2057682;28;1105;-57
2022/06/13 02:19:05;;;;;;;;;;;;;;;21.99;51.46;95107.88;2058251;28;1045;-53
2022/06/13 02:20:11;;;;;;;;;;;;;;;21.99;51.39;95106.00;2057871;28;1161;-56
2022/06/13 02:21:14;;;;;;;;;;;;;;;22.00;51.34;95105.00;2057935;28;1113;-54
2022/06/13 02:22:20;;;;;;;;;;;;;;;22.02;51.33;95108.25;2056599;28;1709;-58
2022/06/13 02:23:24;;;;;;;;;;;;;;;22.03;51.60;95109.09;2049946;28;1070;-54
2022/06/13 02:24:32;;;;;;;;;;;;;;;22.03;51.47;95109.09;2050119;28;1006;-52
2022/06/13 02:25:37;;;;;;;;;;;;;;;22.03;51.17;95104.56;2040404;28;1228;-54
2022/06/13 02:26:41;;;;;;;;;;;;;;;22.02;51.51;95113.59;2049686;28;1918;-54
2022/06/13 02:27:45;;;;;;;;;;;;;;;22.01;51.47;95106.63;2050011;28;1432;-53
2022/06/13 02:28:51;;;;;;;;;;;;;;;22.01;51.30;95103.13;2056973;28;1597;-53
2022/06/13 02:29:55;;;;;;;;;;;;;;;22.00;51.41;95105.00;2057842;28;1797;-54
2022/06/13 02:31:00;;;;;;;;;;;;;;;22.00;51.46;95114.88;2057445;28;1044;-52
2022/06/13 02:32:06;;;;;;;;;;;;;;;21.99;51.34;95114.03;2057876;28;1034;-51
2022/06/13 02:33:11;;;;;;;;;;;;;;;22.01;51.51;95122.69;2057471;28;1731;-57
2022/06/13 02:34:15;;;;;;;;;;;;;;;22.01;51.06;95111.97;2058150;28;1022;-55
2022/06/13 02:35:22;;;;;;;;;;;;;;;22.00;51.25;95107.66;2057896;28;1062;-59
2022/06/13 02:36:29;;;;;;;;;;;;;;;22.00;51.28;95114.88;2053238;28;1133;-56
2022/06/13 02:37:35;;;;;;;;;;;;;;;21.99;50.78;95114.03;2052028;28;1507;-57
2022/06/13 02:38:39;;;;;;;;;;;;;;;21.99;51.03;95118.56;2057846;28;1117;-55
2022/06/13 02:39:44;;;;;;;;;;;;;;;21.96;51.14;95117.16;2057645;28;1049;-55
2022/06/13 02:40:49;;;;;;;;;;;;;;;21.95;51.12;95106.66;2057870;28;1109;-56
2022/06/13 02:41:56;;;;;;;;;;;;;;;21.97;50.78;95112.63;2057992;28;1068;-56
2022/06/13 02:43:01;;;;;;;;;;;;;;;21.98;50.96;95112.41;2057628;28;1620;-58
2022/06/13 02:44:06;;;;;;;;;;;;;;;22.01;51.08;95111.97;2057718;28;1274;-55
2022/06/13 02:45:14;;;;;;;;;;;;;;;22.03;50.93;95109.09;2049820;29;1165;-57
2022/06/13 02:46:20;;;;;;;;;;;;;;;22.01;50.74;95103.94;2054421;28;1721;-56
2022/06/13 02:47:25;;;;;;;;;;;;;;;21.99;51.07;95103.34;2057273;28;1918;-56
2022/06/13 02:48:32;;;;;;;;;;;;;;;21.99;50.79;95103.34;2050408;28;1153;-57
2022/06/13 02:49:37;;;;;;;;;;;;;;;22.00;50.85;95107.66;2057797;28;1105;-56
2022/06/13 02:50:43;;;;;;;;;;;;;;;21.98;50.63;95115.09;2058069;28;1015;-54
2022/06/13 02:51:49;;;;;;;;;;;;;;;21.96;50.92;95117.16;2056918;28;1486;-56
2022/06/13 02:52:56;;;;;;;;;;;;;;;21.95;50.84;95115.53;2050539;28;1772;-55
2022/06/13 02:54:00;;;;;;;;;;;;;;;21.95;51.03;95122.72;2057597;28;1728;-55
2022/06/13 02:55:05;;;;;;;;;;;;;;;21.93;50.91;95122.91;2057404;28;1121;-56
2022/06/13 02:56:11;;;;;;;;;;;;;;;21.95;50.64;95120.03;2056382;28;1422;-55
2022/06/13 02:57:27;;;;;;;;;;;;;;;21.93;50.96;95114.06;2057913;28;1110;-56
2022/06/13 02:58:34;;;;;;;;;;;;;;;21.93;50.96;95122.09;2057949;28;1090;-54
2022/06/13 02:59:43;;;;;;;;;;;;;;;21.93;50.76;95120.22;2048411;28;1188;-53
2022/06/13 03:00:52;;;;;;;;;;;;;;;21.93;50.75;95122.91;2057382;28;1423;-55
2022/06/13 03:01:57;;;;;;;;;;;;;;;21.94;50.73;95121.03;2057474;28;1025;-54
2022/06/13 03:03:07;;;;;;;;;;;;;;;21.95;51.06;95123.56;2057644;28;1132;-56
2022/06/13 03:04:13;;;;;;;;;;;;;;;22.02;51.28;95129.66;2057705;28;1104;-48
2022/06/13 03:05:22;;;;;;;;;;;;;;;21.88;50.02;95122.75;2056983;28;1466;-51
2022/06/13 03:06:27;;;;;;;;;;;;;;;21.70;50.31;95122.66;2057327;28;1654;-48
2022/06/13 03:07:31;;;;;;;;;;;;;;;21.63;50.31;95131.56;2057403;28;1911;-49
2022/06/13 03:08:58;;;;;;;;;;;;;;;21.55;50.21;95123.78;2057828;28;1072;-48
2022/06/13 03:10:05;;;;;;;;;;;;;;;21.38;50.33;95131.50;2038237;28;1509;-48
2022/06/13 03:11:13;;;;;;;;;;;;;;;21.29;50.35;95134.63;2049564;28;1172;-48
2022/06/13 03:12:18;;;;;;;;;;;;;;;21.23;50.58;95134.44;2057578;28;1400;-48
2022/06/13 03:13:24;;;;;;;;;;;;;;;21.19;50.73;95135.06;2057594;28;1756;-52
2022/06/13 03:14:43;;;;;;;;;;;;;;;21.06;50.53;95129.75;2057518;28;1101;-52
2022/06/13 03:15:48;;;;;;;;;;;;;;;21.05;50.73;95134.28;2057732;28;1854;-50
2022/06/13 03:16:55;;;;;;;;;;;;;;;21.01;50.62;95138.41;2057268;28;1153;-49
2022/06/13 03:18:00;;;;;;;;;;;;;;;20.98;50.55;95128.97;2057513;28;1543;-56
2022/06/13 03:19:04;;;;;;;;;;;;;;;20.93;50.69;95135.97;2055415;28;1799;-49
2022/06/13 03:20:11;;;;;;;;;;;;;;;20.94;50.77;95137.59;2056215;28;1699;-48
2022/06/13 03:21:14;;;;;;;;;;;;;;;20.95;50.69;95139.25;2057740;28;1417;-51
2022/06/13 03:22:19;;;;;;;;;;;;;;;20.94;50.78;95137.59;2047986;28;1488;-54
2022/06/13 03:23:25;;;;;;;;;;;;;;;20.93;50.87;95136.78;2056606;28;1567;-51
2022/06/13 03:24:32;;;;;;;;;;;;;;;20.87;50.86;95131.47;2057119;28;1168;-48
2022/06/13 03:25:39;;;;;;;;;;;;;;;20.85;50.89;95138.88;2056427;28;1572;-48
2022/06/13 03:26:50;;;;;;;;;;;;;;;20.85;51.04;95138.88;2057569;28;1653;-49
2022/06/13 03:27:56;;;;;;;;;;;;;;;20.85;50.88;95141.53;2057600;28;2035;-48
2022/06/13 03:29:02;;;;;;;;;;;;;;;20.81;50.84;95143.00;2057483;28;1760;-52
2022/06/13 03:30:08;;;;;;;;;;;;;;;20.77;51.09;95142.59;2057474;28;1781;-48
2022/06/13 03:31:13;;;;;;;;;;;;;;;20.76;51.00;95147.09;2056753;28;1727;-50
2022/06/13 03:32:17;;;;;;;;;;;;;;;20.76;50.97;95141.75;2057301;28;1002;-52
2022/06/13 03:33:41;;;;;;;;;;;;;;;20.71;51.04;95140.75;2052555;28;1779;-49
2022/06/13 03:34:45;;;;;;;;;;;;;;;20.67;51.16;95143.03;2056693;28;1779;-50
2022/06/13 03:35:50;;;;;;;;;;;;;;;20.67;51.30;95150.22;2057537;28;1022;-48
2022/06/13 03:36:56;;;;;;;;;;;;;;;20.66;51.22;95140.56;2057475;28;1188;-47
2022/06/13 03:37:58;;;;;;;;;;;;;;;20.68;51.09;95143.84;2057640;28;1172;-51
2022/06/13 03:39:03;;;;;;;;;;;;;;;20.64;51.38;95146.13;2057060;28;1874;-49
2022/06/13 03:40:08;;;;;;;;;;;;;;;20.62;51.18;95148.16;2057578;28;1098;-50
2022/06/13 03:41:14;;;;;;;;;;;;;;;20.64;51.44;95147.97;2056819;28;1531;-54
2022/06/13 03:42:18;;;;;;;;;;;;;;;20.70;51.72;95139.94;2057185;28;1726;-51
2022/06/13 03:43:23;;;;;;;;;;;;;;;20.76;51.28;95144.44;2059163;28;1121;-48
2022/06/13 03:44:29;;;;;;;;;;;;;;;20.99;51.88;95145.81;2054573;28;1060;-60
2022/06/13 03:45:34;;;;;;;;;;;;;;;21.23;50.74;95147.81;2053589;28;1664;-49
2022/06/13 03:46:40;;;;;;;;;;;;;;;21.08;51.03;95155.22;2055725;28;1612;-58
2022/06/13 03:47:44;;;;;;;;;;;;;;;20.98;50.87;95152.19;2055668;28;1914;-50
2022/06/13 03:48:49;;;;;;;;;;;;;;;20.79;50.94;95154.69;2056754;28;1593;-52
2022/06/13 03:49:56;;;;;;;;;;;;;;;20.58;51.40;95154.97;2057507;28;1281;-51
2022/06/13 03:51:03;;;;;;;;;;;;;;;20.57;51.61;95158.66;2058982;28;1588;-50
2022/06/13 03:52:07;;;;;;;;;;;;;;;20.51;51.76;95154.13;2057573;28;1340;-49
2022/06/13 03:53:13;;;;;;;;;;;;;;;20.47;52.18;95152.94;2058490;28;1146;-48
2022/06/13 03:54:19;;;;;;;;;;;;;;;20.40;52.08;95150.25;2051396;28;1355;-51
2022/06/13 03:55:23;;;;;;;;;;;;;;;20.36;52.39;95151.66;2056643;28;1417;-51
2022/06/13 03:56:29;;;;;;;;;;;;;;;20.38;52.36;95154.19;2049006;28;1771;-51
2022/06/13 03:57:34;;;;;;;;;;;;;;;20.37;52.31;95157.84;2050116;28;1648;-50
2022/06/13 03:58:40;;;;;;;;;;;;;;;20.31;52.43;95154.13;2052706;28;1930;-50
2022/06/13 03:59:44;;;;;;;;;;;;;;;20.28;52.92;95160.69;2052848;28;1736;-52
2022/06/13 04:00:51;;;;;;;;;;;;;;;20.34;52.76;95159.91;2058955;28;1095;-58
2022/06/13 04:01:56;;;;;;;;;;;;;;;20.37;52.78;95158.66;2056531;28;1462;-51
2022/06/13 04:03:01;;;;;;;;;;;;;;;20.34;52.96;95165.22;2058760;28;1013;-59
2022/06/13 04:04:03;;;;;;;;;;;;;;;20.29;52.89;95149.00;2058772;28;1057;-50
2022/06/13 04:05:06;;;;;;;;;;;;;;;20.30;52.91;95161.31;2058617;28;1050;-48
2022/06/13 04:06:23;;;;;;;;;;;;;;;20.33;53.62;95157.41;2057016;28;1902;-60
2022/06/13 04:07:28;;;;;;;;;;;;;;;20.40;52.99;95157.44;2051313;28;2995;-49
2022/06/13 04:08:33;;;;;;;;;;;;;;;20.38;53.16;95159.50;2053819;28;1986;-49
2022/06/13 04:09:37;;;;;;;;;;;;;;;20.31;53.38;95159.47;2058751;28;1768;-53
2022/06/13 04:10:46;;;;;;;;;;;;;;;20.31;53.12;95154.94;2058140;28;1752;-52
2022/06/13 04:12:00;;;;;;;;;;;;;;;20.37;53.36;95158.66;2057434;28;1626;-49
2022/06/13 04:13:15;;;;;;;;;;;;;;;20.46;53.14;95159.28;2057917;28;1976;-50
2022/06/13 04:14:25;;;;;;;;;;;;;;;20.52;52.78;95161.97;2058012;28;2090;-49
2022/06/13 04:15:43;;;;;;;;;;;;;;;20.43;52.81;95159.69;2058413;28;1800;-49
2022/06/13 04:16:49;;;;;;;;;;;;;;;20.40;52.85;95166.25;2055346;28;2230;-49
2022/06/13 04:17:58;;;;;;;;;;;;;;;20.39;52.68;95155.81;2059094;28;1010;-51
2022/06/13 04:19:08;;;;;;;;;;;;;;;20.44;52.84;95154.16;2051074;28;1030;-51
2022/06/13 04:20:18;;;;;;;;;;;;;;;20.33;52.87;95158.22;2058608;28;1154;-48
2022/06/13 04:21:27;;;;;;;;;;;;;;;20.34;52.94;95157.22;2058436;28;1166;-49
2022/06/13 04:22:39;;;;;;;;;;;;;;;20.30;53.13;95153.31;2058140;28;1157;-51
2022/06/13 04:23:44;;;;;;;;;;;;;;;20.27;53.26;95151.06;2058583;28;1149;-48
2022/06/13 04:24:54;;;;;;;;;;;;;;;20.27;53.34;95158.25;2058932;28;1176;-49
2022/06/13 04:26:03;;;;;;;;;;;;;;;20.31;53.30;95156.81;2058954;28;1120;-48
2022/06/13 04:27:07;;;;;;;;;;;;;;;20.26;53.57;95162.78;2058975;28;1010;-54
2022/06/13 04:28:13;;;;;;;;;;;;;;;20.27;53.43;95153.72;2058748;28;1902;-49
2022/06/13 04:29:19;;;;;;;;;;;;;;;20.30;53.60;95158.66;2059042;28;1090;-49
2022/06/13 04:30:25;;;;;;;;;;;;;;;20.33;53.37;95157.41;2050836;28;1090;-53
2022/06/13 04:31:30;;;;;;;;;;;;;;;20.30;53.52;95149.84;2058194;28;1516;-49
2022/06/13 04:32:36;;;;;;;;;;;;;;;20.30;53.66;95157.84;2058770;28;1085;-49
2022/06/13 04:33:41;;;;;;;;;;;;;;;20.27;53.76;95151.06;2058860;28;1089;-48
2022/06/13 04:34:46;;;;;;;;;;;;;;;20.27;53.89;95153.72;2058147;28;1125;-48
2022/06/13 04:35:50;;;;;;;;;;;;;;;20.22;54.05;95145.50;2057646;28;1070;-51
2022/06/13 04:36:52;;;;;;;;;;;;;;;20.25;53.87;95154.97;2058115;28;1022;-51
2022/06/13 04:37:56;;;;;;;;;;;;;;;20.28;53.96;95151.88;2058031;28;1110;-50
2022/06/13 04:39:00;;;;;;;;;;;;;;;20.29;53.81;95148.19;2058008;28;1121;-50
2022/06/13 04:40:04;;;;;;;;;;;;;;;20.26;53.85;95148.59;2058201;28;1109;-51
2022/06/13 04:41:09;;;;;;;;;;;;;;;20.24;54.00;95148.81;2053515;28;1121;-49
2022/06/13 04:42:13;;;;;;;;;;;;;;;20.21;54.23;95143.06;2052989;28;1072;-49
2022/06/13 04:43:18;;;;;;;;;;;;;;;20.13;54.68;95144.09;2058143;28;1028;-52
2022/06/13 04:44:23;;;;;;;;;;;;;;;20.17;54.50;95141.81;2058004;28;990;-50
2022/06/13 04:45:27;;;;;;;;;;;;;;;20.18;54.71;95149.63;2057515;28;1077;-49
2022/06/13 04:46:29;;;;;;;;;;;;;;;20.19;54.82;95143.25;2058011;28;1109;-49
2022/06/13 04:47:32;;;;;;;;;;;;;;;20.17;54.76;95141.81;2058107;28;1030;-49
2022/06/13 04:48:36;;;;;;;;;;;;;;;20.17;54.80;95139.97;2058165;28;2005;-51
2022/06/13 04:49:42;;;;;;;;;;;;;;;20.19;54.97;95147.78;2058221;28;1013;-51
2022/06/13 04:50:47;;;;;;;;;;;;;;;20.23;55.05;95152.50;2058674;28;1108;-48
2022/06/13 04:51:50;;;;;;;;;;;;;;;20.19;55.18;95151.25;2058552;28;1117;-51
2022/06/13 04:52:55;;;;;;;;;;;;;;;20.18;55.07;95149.63;2053510;28;1344;-49
2022/06/13 04:54:01;;;;;;;;;;;;;;;20.18;55.15;95154.97;2053500;28;1274;-49
2022/06/13 04:55:06;;;;;;;;;;;;;;;20.18;55.30;95154.97;2058174;28;1122;-50
2022/06/13 04:56:08;;;;;;;;;;;;;;;20.17;55.47;95153.31;2058286;28;1184;-51
2022/06/13 04:57:12;;;;;;;;;;;;;;;20.19;55.34;95145.13;2058563;28;1106;-48
2022/06/13 04:58:18;;;;;;;;;;;;;;;20.21;55.69;95141.22;2058567;28;1172;-49
2022/06/13 04:59:20;;;;;;;;;;;;;;;20.24;55.66;95143.47;2058678;28;1027;-49
2022/06/13 05:00:23;;;;;;;;;;;;;;;20.22;56.01;95145.50;2058260;28;1086;-50
2022/06/13 05:01:26;;;;;;;;;;;;;;;20.24;55.90;95140.00;2058698;28;1086;-49
2022/06/13 05:02:35;;;;;;;;;;;;;;;20.23;56.09;95135.66;2058703;28;1106;-51
2022/06/13 05:03:38;;;;;;;;;;;;;;;20.30;56.14;95144.50;2058763;28;1018;-52
2022/06/13 05:04:40;;;;;;;;;;;;;;;20.36;55.90;95145.50;2050357;28;1086;-51
2022/06/13 05:05:46;;;;;;;;;;;;;;;20.43;55.59;95146.34;2058036;28;1366;-49
2022/06/13 05:06:50;;;;;;;;;;;;;;;20.49;55.70;95140.19;2058622;28;1073;-48
2022/06/13 05:07:52;;;;;;;;;;;;;;;20.54;55.57;95137.72;2058143;28;1069;-52
2022/06/13 05:08:57;;;;;;;;;;;;;;;20.53;55.84;95136.91;2058656;28;1907;-49
2022/06/13 05:10:03;;;;;;;;;;;;;;;20.48;56.17;95135.88;2058688;28;1018;-55
2022/06/13 05:11:09;;;;;;;;;;;;;;;20.47;56.30;95136.91;2058714;28;1177;-49
2022/06/13 05:12:15;;;;;;;;;;;;;;;20.49;56.22;95135.69;2058599;28;1065;-50
2022/06/13 05:13:17;;;;;;;;;;;;;;;20.47;56.37;95140.41;2058682;28;1049;-50
2022/06/13 05:14:22;;;;;;;;;;;;;;;20.50;56.63;95139.16;2058604;28;1051;-53
2022/06/13 05:15:29;;;;;;;;;;;;;;;20.52;56.20;95131.78;2053553;28;974;-50
2022/06/13 05:16:38;;;;;;;;;;;;;;;20.60;56.10;95139.56;2053557;28;1180;-47
2022/06/13 05:17:58;;;;;;;;;;;;;;;20.61;56.48;95138.53;2058574;28;1091;-53
2022/06/13 05:19:09;;;;;;;;;;;;;;;20.61;56.66;95141.19;2058628;28;1065;-51
2022/06/13 05:20:14;;;;;;;;;;;;;;;20.65;56.40;95144.25;2058462;28;1122;-51
2022/06/13 05:21:25;;;;;;;;;;;;;;;20.67;56.64;95145.69;2058602;28;966;-48
2022/06/13 05:22:32;;;;;;;;;;;;;;;20.73;56.35;95141.38;2058244;28;987;-51
2022/06/13 05:23:44;;;;;;;;;;;;;;;20.81;55.76;95145.69;2058558;28;1037;-52
2022/06/13 05:25:05;;;;;;;;;;;;;;;20.90;55.45;95144.41;2058571;28;1085;-49
2022/06/13 05:26:09;;;;;;;;;;;;;;;20.96;55.35;95146.22;2058357;28;1379;-51
2022/06/13 05:27:11;;;;;;;;;;;;;;;20.98;55.55;95145.00;2049341;28;1049;-63
2022/06/13 05:28:16;;;;;;;;;;;;;;;20.99;55.72;95146.63;2058199;28;1188;-47
2022/06/13 05:29:18;;;;;;;;;;;;;;;21.03;55.68;95152.38;2058351;28;1906;-54
2022/06/13 05:30:21;;;;;;;;;;;;;;;21.05;55.20;95144.97;2057943;28;1110;-51
2022/06/13 05:31:23;;;;;;;;;;;;;;;21.10;55.22;95141.66;2058450;28;1065;-49
2022/06/13 05:32:26;;;;;;;;;;;;;;;21.15;55.13;95144.53;2058398;28;1041;-49
2022/06/13 05:33:30;;;;;;;;;;;;;;;21.20;54.90;95134.06;2058434;28;1026;-49
2022/06/13 05:34:34;;;;;;;;;;;;;;;21.23;54.93;95142.47;2058398;28;1113;-48
2022/06/13 05:35:43;;;;;;;;;;;;;;;21.28;54.97;95144.47;2058269;28;1096;-48
2022/06/13 05:36:45;;;;;;;;;;;;;;;21.29;54.93;95139.97;2058322;28;1090;-48
2022/06/13 05:37:48;;;;;;;;;;;;;;;21.32;55.10;95144.91;2055119;28;1165;-57
2022/06/13 05:38:52;;;;;;;;;;;;;;;21.36;54.65;95138.09;2052497;28;1244;-52
2022/06/13 05:39:54;;;;;;;;;;;;;;;21.35;54.96;95137.28;2058386;28;1167;-49
2022/06/13 05:41:01;;;;;;;;;;;;;;;21.31;55.61;95140.56;2058345;28;1121;-52
2022/06/13 05:42:06;;;;;;;;;;;;;;;21.29;55.56;95142.66;2058218;28;1117;-49
2022/06/13 05:43:08;;;;;;;;;;;;;;;21.27;56.24;95142.03;2058216;28;1113;-50
2022/06/13 05:44:11;;;;;;;;;;;;;;;21.28;56.14;95135.66;2058389;28;985;-49
2022/06/13 05:45:14;;;;;;;;;;;;;;;21.29;56.17;95145.34;2058057;28;1061;-52
2022/06/13 05:46:19;;;;;;;;;;;;;;;21.29;56.44;95153.34;2058092;28;1089;-52
2022/06/13 05:47:21;;;;;;;;;;;;;;;21.30;56.42;95144.28;2058225;28;1113;-49
2022/06/13 05:48:24;;;;;;;;;;;;;;;21.30;56.23;95146.97;2058135;28;1164;-50
2022/06/13 05:49:25;;;;;;;;;;;;;;;21.31;56.25;95140.56;2053687;28;1910;-49
2022/06/13 05:50:32;;;;;;;;;;;;;;;21.32;56.30;95144.91;2053095;28;1481;-52
2022/06/13 05:51:34;;;;;;;;;;;;;;;21.33;56.35;95144.66;2058214;28;1093;-49